Time;durP1;ratioP1;P1;durP2;ratioP2;P2;SDS_P1;SDS_P2;PMS_P1;PMS_P2;Temp;Humidity;BMP_temperature;BMP_pressure;BME280_temperature;BME280_humidity;BME280_pressure;Samples;Min_cycle;Max_cycle;Signal;HPM_P1;HPM_P2
2023/07/31 00:01:15;;;;;;;3.40;1.25;;;;;;;24.52;49.19;99392.63;5104510;28;20108;-25
2023/07/31 00:03:41;;;;;;;2.55;1.50;;;;;;;24.55;49.03;99393.88;5104594;28;20026;-24
2023/07/31 00:06:06;;;;;;;3.00;1.30;;;;;;;24.63;49.25;99406.66;5104551;28;20077;-24
2023/07/31 00:08:35;;;;;;;2.40;1.40;;;;;;;24.84;48.74;99404.75;5104694;28;20020;-23
2023/07/31 00:11:00;;;;;;;4.18;1.50;;;;;;;24.85;48.38;99414.56;5104632;28;20081;-25
2023/07/31 00:13:25;;;;;;;4.35;1.40;;;;;;;24.85;48.76;99409.09;5104465;28;20876;-24
2023/07/31 00:15:53;;;;;;;2.60;1.27;;;;;;;24.82;48.72;99414.41;5104310;28;20027;-24
2023/07/31 00:18:18;;;;;;;3.58;1.60;;;;;;;24.89;48.78;99416.59;5108434;28;20063;-24
2023/07/31 00:20:46;;;;;;;3.08;1.42;;;;;;;24.77;48.76;99414.63;5108575;28;20063;-24
2023/07/31 00:23:12;;;;;;;4.20;1.90;;;;;;;24.49;49.41;99403.34;5108505;28;20026;-25
2023/07/31 00:25:40;;;;;;;3.40;1.55;;;;;;;24.51;49.25;99398.38;5108566;28;20396;-24
2023/07/31 00:28:05;;;;;;;2.47;1.20;;;;;;;24.51;49.50;99403.84;5108551;28;20031;-24
2023/07/31 00:30:30;;;;;;;2.97;1.70;;;;;;;24.25;50.88;99404.72;5108541;28;20024;-23
2023/07/31 00:32:56;;;;;;;3.83;2.25;;;;;;;24.15;51.12;99416.78;5108683;28;20023;-23
2023/07/31 00:35:21;;;;;;;6.25;1.80;;;;;;;24.34;51.06;99427.28;5107959;28;20141;-24
2023/07/31 00:37:47;;;;;;;1.83;1.20;;;;;;;24.49;50.54;99428.66;5108163;28;20031;-25
2023/07/31 00:40:15;;;;;;;5.05;1.80;;;;;;;24.55;50.45;99429.31;5108169;28;20077;-24
2023/07/31 00:42:40;;;;;;;4.30;1.50;;;;;;;24.52;50.69;99427.22;5107982;28;20107;-23
2023/07/31 00:45:08;;;;;;;2.53;1.42;;;;;;;24.56;50.79;99439.06;5108289;28;20111;-24
2023/07/31 00:47:34;;;;;;;;;;;;;;;24.53;51.09;99439.75;5108829;28;20092;-28
2023/07/31 00:49:59;;;;;;;3.28;1.40;;;;;;;24.64;50.99;99443.69;5108420;28;19919;-24
2023/07/31 00:52:25;;;;;;;2.00;1.20;;;;;;;24.66;50.73;99444.97;5107777;28;20559;-26
2023/07/31 00:54:50;;;;;;;3.10;1.40;;;;;;;24.34;51.80;99443.63;5107781;28;20031;-24
2023/07/31 00:57:16;;;;;;;2.67;1.40;;;;;;;24.57;51.79;99441.47;5107644;28;20081;-24
2023/07/31 00:59:41;;;;;;;4.28;1.80;;;;;;;24.54;51.63;99441.31;5107645;28;20031;-24
2023/07/31 01:02:07;;;;;;;2.38;1.45;;;;;;;24.62;51.08;99454.94;5107689;28;20419;-25
2023/07/31 01:04:32;;;;;;;3.53;1.73;;;;;;;24.69;51.75;99451.69;5108079;28;20119;-24
2023/07/31 01:07:34;;;;;;;3.70;1.67;;;;;;;24.58;51.62;99453.19;5107489;27;20416;-25
2023/07/31 01:10:04;;;;;;;2.92;1.27;;;;;;;24.58;52.08;99459.44;5108164;28;20028;-24
2023/07/31 01:12:31;;;;;;;5.22;1.42;;;;;;;24.52;51.59;99449.84;5107715;28;20545;-27
2023/07/31 01:15:06;;;;;;;4.85;2.03;;;;;;;24.26;52.46;99456.16;5107862;28;20031;-24
2023/07/31 01:17:31;;;;;;;2.53;1.60;;;;;;;24.19;52.76;99453.16;5107491;28;20030;-24
2023/07/31 01:20:01;;;;;;;3.65;1.63;;;;;;;24.28;52.93;99461.28;5107314;28;20020;-23
2023/07/31 01:23:05;;;;;;;3.22;2.03;;;;;;;24.29;52.67;99467.53;5107765;28;20448;-24
2023/07/31 01:25:33;;;;;;;4.18;1.85;;;;;;;24.18;52.17;99462.44;5043908;28;20484;-23
2023/07/31 01:28:07;;;;;;;3.58;1.90;;;;;;;24.18;52.68;99461.63;5043122;28;20257;-23
2023/07/31 01:30:37;;;;;;;3.15;1.63;;;;;;;23.95;53.41;99445.50;5077873;28;20100;-24
2023/07/31 01:33:07;;;;;;;3.22;1.75;;;;;;;23.88;53.78;99447.13;5107145;28;20103;-24
2023/07/31 01:35:37;;;;;;;3.15;2.10;;;;;;;23.81;53.88;99455.78;5107477;28;20020;-23
2023/07/31 01:38:04;;;;;;;2.88;1.80;;;;;;;23.96;52.94;99452.53;5106665;28;20477;-24
2023/07/31 01:40:29;;;;;;;3.50;1.70;;;;;;;24.05;53.06;99447.88;5107146;28;20023;-24
2023/07/31 01:42:55;;;;;;;4.22;1.88;;;;;;;24.12;53.23;99449.31;5106874;28;20039;-24
2023/07/31 01:45:20;;;;;;;3.67;1.98;;;;;;;23.98;53.54;99447.56;5106885;28;20029;-24
2023/07/31 01:47:46;;;;;;;3.40;1.65;;;;;;;23.86;54.42;99461.03;5106779;27;20028;-24
2023/07/31 01:50:12;;;;;;;3.75;1.70;;;;;;;23.88;54.24;99458.78;5106738;28;20076;-24
2023/07/31 01:52:37;;;;;;;3.03;1.60;;;;;;;24.16;53.50;99455.72;5106780;28;20420;-24
2023/07/31 01:55:03;;;;;;;4.07;1.90;;;;;;;23.93;53.73;99449.69;5106743;28;20440;-24
2023/07/31 01:57:28;;;;;;;2.80;1.70;;;;;;;23.72;54.63;99452.22;5106413;28;20020;-24
2023/07/31 01:59:54;;;;;;;4.28;1.67;;;;;;;23.54;55.03;99449.53;5106321;28;20055;-23
2023/07/31 02:02:20;;;;;;;5.22;1.83;;;;;;;23.52;54.91;99450.94;5106604;28;20699;-24
2023/07/31 02:04:46;;;;;;;4.72;1.63;;;;;;;23.72;54.52;99460.38;5106460;28;20057;-24
2023/07/31 02:07:11;;;;;;;3.88;1.50;;;;;;;23.33;55.57;99453.97;5106528;28;20450;-24
2023/07/31 02:09:37;;;;;;;3.15;1.88;;;;;;;23.34;55.57;99445.50;5106492;28;20023;-24
2023/07/31 02:12:03;;;;;;;3.65;1.85;;;;;;;23.61;54.79;99460.72;5106571;28;20130;-24
2023/07/31 02:14:28;;;;;;;2.53;1.70;;;;;;;23.53;54.70;99463.44;5106427;28;20036;-23
2023/07/31 02:16:53;;;;;;;3.53;1.83;;;;;;;23.54;54.41;99465.03;5106655;28;20080;-24
2023/07/31 02:19:19;;;;;;;3.40;1.80;;;;;;;23.32;54.33;99474.94;5106388;28;20042;-24
2023/07/31 02:21:44;;;;;;;5.25;1.60;;;;;;;23.11;55.79;99485.66;5106341;28;20016;-24
2023/07/31 02:24:10;;;;;;;36.90;17.60;;;;;;;23.40;55.06;99492.41;5106040;28;20225;-24
2023/07/31 02:26:35;;;;;;;32.33;15.65;;;;;;;23.72;54.77;99490.34;5106129;28;20531;-29
2023/07/31 02:29:01;;;;;;;14.95;6.13;;;;;;;23.45;54.84;99494.97;5106030;28;20035;-24
2023/07/31 02:31:26;;;;;;;14.10;7.53;;;;;;;23.20;55.83;99497.31;5106104;28;20496;-24
2023/07/31 02:33:51;;;;;;;19.35;7.82;;;;;;;23.47;55.54;99503.59;5105867;28;20035;-24
2023/07/31 02:36:17;;;;;;;19.75;10.52;;;;;;;23.53;55.18;99499.63;5106150;28;20027;-25
2023/07/31 02:38:42;;;;;;;44.05;21.25;;;;;;;23.42;54.98;99506.50;5105416;28;20027;-24
2023/07/31 02:41:08;;;;;;;61.90;29.45;;;;;;;23.31;54.78;99505.19;5105620;28;20429;-24
2023/07/31 02:43:33;;;;;;;62.92;31.60;;;;;;;23.11;55.41;99491.09;5106150;28;20043;-24
2023/07/31 02:45:59;;;;;;;59.10;29.98;;;;;;;23.26;55.26;99501.50;5105666;28;20096;-23
2023/07/31 02:48:24;;;;;;;73.60;37.50;;;;;;;23.40;54.55;99493.22;5105808;28;20419;-23
2023/07/31 02:50:50;;;;;;;42.83;21.55;;;;;;;23.34;54.20;99499.13;5105678;28;20488;-23
2023/07/31 02:53:15;;;;;;;48.38;24.77;;;;;;;23.15;55.51;99500.22;5105247;28;20019;-24
2023/07/31 02:55:41;;;;;;;61.70;28.20;;;;;;;23.20;55.42;99491.88;5105523;28;20027;-24
2023/07/31 02:58:06;;;;;;;61.20;27.05;;;;;;;23.38;54.88;99500.09;5105642;28;20027;-24
2023/07/31 03:00:32;;;;;;;46.10;21.15;;;;;;;23.26;55.53;99487.09;5105669;28;20405;-23
2023/07/31 03:02:57;;;;;;;31.98;14.50;;;;;;;23.81;54.98;99480.28;5105415;28;20032;-23
2023/07/31 03:05:22;;;;;;;14.45;6.30;;;;;;;23.91;54.32;99479.94;5105173;28;20557;-24
2023/07/31 03:07:50;;;;;;;9.85;4.15;;;;;;;24.14;53.32;99456.03;5105149;28;20031;-24
2023/07/31 03:10:16;;;;;;;17.20;4.65;;;;;;;23.92;53.50;99484.25;5105559;28;20023;-25
2023/07/31 03:12:41;;;;;;;22.48;9.07;;;;;;;24.23;53.38;99475.06;5105297;28;20027;-24
2023/07/31 03:15:07;;;;;;;13.63;5.22;;;;;;;24.39;52.91;99467.97;5105574;28;20027;-28
2023/07/31 03:17:35;;;;;;;15.55;6.13;;;;;;;24.54;52.41;99485.75;5105550;28;20122;-24
2023/07/31 03:20:00;;;;;;;12.57;6.10;;;;;;;24.37;53.36;99486.56;5105484;28;20020;-24
2023/07/31 03:22:25;;;;;;;18.00;7.20;;;;;;;24.91;51.40;99488.81;5104971;27;20062;-24
2023/07/31 03:24:51;;;;;;;18.88;7.70;;;;;;;24.92;50.86;99486.88;5105388;28;20019;-24
2023/07/31 03:27:16;;;;;;;17.52;6.10;;;;;;;24.42;52.60;99488.34;5105192;28;20028;-24
2023/07/31 03:29:42;;;;;;;17.88;6.13;;;;;;;24.52;52.75;99487.19;5105158;28;20031;-23
2023/07/31 03:32:07;;;;;;;8.40;2.63;;;;;;;24.56;51.81;99480.78;5105106;28;20467;-25
2023/07/31 03:34:33;;;;;;;6.70;2.72;;;;;;;24.61;52.27;99482.53;5104839;28;20069;-23
2023/07/31 03:36:59;;;;;;;6.18;2.30;;;;;;;24.57;52.57;99478.84;5104993;28;20062;-24
2023/07/31 03:39:26;;;;;;;6.18;2.78;;;;;;;24.66;52.07;99476.88;5104740;28;20412;-24
2023/07/31 03:41:52;;;;;;;12.02;2.88;;;;;;;24.32;52.95;99464.97;5104940;28;20438;-25
2023/07/31 03:44:17;;;;;;;7.22;2.63;;;;;;;24.34;53.08;99470.88;5104544;28;20568;-26
2023/07/31 03:46:43;;;;;;;6.97;2.88;;;;;;;24.19;53.52;99469.50;5104927;28;20140;-24
2023/07/31 03:49:11;;;;;;;9.00;2.20;;;;;;;23.97;52.95;99484.09;5104608;28;20035;-24
2023/07/31 03:51:36;;;;;;;;;;;;;;;23.92;54.56;99476.09;5104845;28;20119;-24
2023/07/31 03:54:01;;;;;;;8.23;3.43;;;;;;;24.17;53.71;99470.91;5104480;28;19990;-24
2023/07/31 03:56:27;;;;;;;6.07;2.08;;;;;;;24.18;53.34;99465.16;5104860;28;20647;-24
2023/07/31 03:58:52;;;;;;;5.00;2.72;;;;;;;24.37;53.02;99463.97;5104744;28;20045;-24
2023/07/31 04:01:20;;;;;;;7.68;2.55;;;;;;;24.47;52.94;99472.59;5104285;28;20136;-24
2023/07/31 04:03:45;;;;;;;8.23;2.50;;;;;;;24.32;52.62;99472.34;5104360;28;20027;-24
2023/07/31 04:06:10;;;;;;;5.45;2.22;;;;;;;24.25;53.59;99479.09;5104291;28;20036;-25
2023/07/31 04:08:36;;;;;;;3.75;2.20;;;;;;;24.69;52.73;99487.13;5104845;28;20020;-24
2023/07/31 04:11:01;;;;;;;9.32;2.35;;;;;;;24.61;52.70;99486.03;5104378;28;20015;-25
2023/07/31 04:13:29;;;;;;;9.88;2.47;;;;;;;24.52;52.81;99492.66;5104398;28;20540;-24
2023/07/31 04:15:54;;;;;;;6.47;2.30;;;;;;;24.42;52.54;99497.31;5104499;28;20042;-24
2023/07/31 04:18:20;;;;;;;6.05;2.22;;;;;;;24.19;53.66;99512.25;5104251;28;20035;-24
2023/07/31 04:20:48;;;;;;;9.43;3.20;;;;;;;24.04;55.09;99511.63;5104568;28;20022;-24
2023/07/31 04:23:13;;;;;;;8.05;2.30;;;;;;;24.06;54.90;99525.75;5104393;28;20024;-24
2023/07/31 04:25:39;;;;;;;7.32;2.25;;;;;;;24.26;55.03;99529.72;5104476;28;20023;-24
2023/07/31 04:28:04;;;;;;;13.48;2.88;;;;;;;24.06;55.59;99527.66;5104100;28;20024;-24
2023/07/31 04:30:30;;;;;;;6.68;2.35;;;;;;;24.16;55.73;99534.72;5104141;28;20042;-25
2023/07/31 04:32:55;;;;;;;5.22;2.50;;;;;;;24.16;55.87;99540.97;5104386;28;20110;-25
2023/07/31 04:35:20;;;;;;;9.57;3.00;;;;;;;24.08;58.05;99543.69;5104116;28;20110;-24
2023/07/31 04:37:48;;;;;;;5.68;3.67;;;;;;;24.21;59.50;99548.16;5104072;28;20034;-23
2023/07/31 04:40:16;;;;;;;;;;;;;;;23.98;62.31;99540.16;5104781;28;20114;-23
2023/07/31 04:42:42;;;;;;;7.13;2.63;;;;;;;23.98;63.17;99542.88;5104068;28;19912;-25
2023/07/31 04:45:08;;;;;;;12.68;3.17;;;;;;;23.64;65.02;99547.19;5104830;28;20450;-24
2023/07/31 04:47:34;;;;;;;7.95;2.70;;;;;;;23.59;64.17;99547.31;5104157;28;20420;-24
2023/07/31 04:49:59;;;;;;;5.63;2.70;;;;;;;23.32;66.79;99542.97;5103934;28;20031;-24
2023/07/31 04:52:25;;;;;;;8.98;3.40;;;;;;;23.10;68.69;99554.75;5104153;28;20063;-26
2023/07/31 04:54:50;;;;;;;28.85;14.07;;;;;;;22.97;69.66;99566.50;5103804;28;20412;-24
2023/07/31 04:57:16;;;;;;;12.52;5.82;;;;;;;22.67;70.19;99563.47;5103946;28;20032;-24
2023/07/31 04:59:41;;;;;;;45.03;21.58;;;;;;;22.41;70.87;99564.16;5103578;28;20098;-25
2023/07/31 05:02:08;;;;;;;30.08;13.88;;;;;;;22.10;74.70;99561.31;5103716;28;20024;-24
2023/07/31 05:04:33;;;;;;;88.13;45.07;;;;;;;21.63;79.32;99566.19;5106666;28;20019;-25
2023/07/31 05:06:59;;;;;;;158.38;86.57;;;;;;;21.32;85.72;99579.56;5107873;28;20456;-25
2023/07/31 05:09:25;;;;;;;70.65;43.33;;;;;;;21.45;87.52;99576.06;5107556;28;20023;-24
2023/07/31 05:11:50;;;;;;;21.30;12.95;;;;;;;21.54;86.00;99582.41;5107728;28;20043;-26
2023/07/31 05:14:15;;;;;;;49.53;25.20;;;;;;;21.65;86.44;99593.81;5107594;28;20040;-25
2023/07/31 05:16:41;;;;;;;19.10;11.25;;;;;;;21.65;86.76;99599.25;5107721;28;20024;-26
2023/07/31 05:19:07;;;;;;;17.80;9.57;;;;;;;21.76;86.95;99592.50;5107763;28;20035;-26
2023/07/31 05:21:32;;;;;;;19.75;10.55;;;;;;;21.85;87.24;99581.72;5107339;27;20024;-25
2023/07/31 05:23:57;;;;;;;25.15;13.50;;;;;;;22.07;86.28;99579.03;5107349;28;20031;-24
2023/07/31 05:26:23;;;;;;;15.27;8.95;;;;;;;22.24;86.23;99580.31;5099230;28;20043;-25
2023/07/31 05:28:49;;;;;;;14.45;7.75;;;;;;;22.18;85.20;99592.38;5100541;28;20031;-24
2023/07/31 05:31:14;;;;;;;12.20;6.50;;;;;;;22.55;84.13;99587.72;5103536;28;20079;-24
2023/07/31 05:33:40;;;;;;;12.00;5.55;;;;;;;22.42;85.45;99600.25;5101888;28;20079;-24
2023/07/31 05:36:05;;;;;;;9.57;5.72;;;;;;;22.38;85.38;99593.84;5107161;28;20024;-24
2023/07/31 05:38:33;;;;;;;30.25;14.77;;;;;;;22.53;84.38;99595.38;5107238;28;20038;-24
2023/07/31 05:40:58;;;;;;;37.22;18.38;;;;;;;22.95;80.23;99598.66;5107094;28;20055;-25
2023/07/31 05:43:24;;;;;;;44.03;20.98;;;;;;;22.62;84.31;99593.53;5107080;28;20026;-24
2023/07/31 05:45:51;;;;;;;27.23;13.68;;;;;;;22.83;82.73;99591.88;5106885;28;20085;-25
2023/07/31 05:48:16;;;;;;;16.45;8.88;;;;;;;22.85;83.03;99592.34;5107404;28;20051;-25
2023/07/31 05:50:43;;;;;;;17.45;8.52;;;;;;;23.14;80.24;99607.38;5106883;28;20062;-25
2023/07/31 05:53:10;;;;;;;10.32;5.97;;;;;;;22.95;82.81;99612.25;5106831;28;20030;-24
2023/07/31 05:55:35;;;;;;;11.23;7.45;;;;;;;23.02;84.49;99601.75;5106842;28;20035;-24
2023/07/31 05:58:01;;;;;;;11.93;6.28;;;;;;;23.08;84.40;99586.88;5106897;28;20526;-24
2023/07/31 06:00:27;;;;;;;14.35;8.63;;;;;;;23.08;87.59;99605.13;5106780;28;20049;-25
2023/07/31 06:02:53;;;;;;;10.10;5.55;;;;;;;23.35;84.69;99598.66;5106741;28;20059;-25
2023/07/31 06:05:18;;;;;;;7.15;5.07;;;;;;;23.32;87.30;99600.09;5106501;28;20070;-23
2023/07/31 06:07:44;;;;;;;9.27;5.68;;;;;;;23.44;85.21;99604.94;5106221;28;20042;-24
2023/07/31 06:10:09;;;;;;;12.00;6.13;;;;;;;23.41;87.43;99603.63;5106730;28;20055;-24
2023/07/31 06:12:35;;;;;;;10.38;6.03;;;;;;;23.34;88.13;99605.25;5106677;28;20051;-24
2023/07/31 06:15:02;;;;;;;12.00;6.22;;;;;;;23.32;86.57;99600.09;5105447;28;20062;-24
2023/07/31 06:17:28;;;;;;;8.57;5.20;;;;;;;23.60;83.90;99611.56;5106073;28;20466;-26
2023/07/31 06:19:54;;;;;;;8.57;5.18;;;;;;;23.69;83.70;99619.72;5105950;28;20584;-24
2023/07/31 06:22:20;;;;;;;7.60;5.70;;;;;;;23.98;81.42;99613.69;5106216;28;20039;-25
2023/07/31 06:24:46;;;;;;;9.65;5.38;;;;;;;23.91;81.75;99620.75;5106378;28;20027;-24
2023/07/31 06:27:11;;;;;;;8.32;5.10;;;;;;;23.90;83.02;99617.22;5106256;28;20020;-26
2023/07/31 06:29:37;;;;;;;8.45;5.43;;;;;;;23.58;85.36;99602.91;5105853;28;20027;-24
2023/07/31 06:32:03;;;;;;;8.38;5.15;;;;;;;23.61;84.60;99617.78;5105946;28;20027;-24
2023/07/31 06:34:28;;;;;;;8.38;5.45;;;;;;;23.18;86.56;99616.53;5104406;28;20543;-24
2023/07/31 06:36:54;;;;;;;9.73;5.40;;;;;;;23.21;85.39;99605.03;5105059;28;20051;-25
2023/07/31 06:39:19;;;;;;;7.65;4.75;;;;;;;23.20;86.24;99611.56;5105810;28;20031;-23
2023/07/31 06:41:44;;;;;;;7.47;4.38;;;;;;;22.82;87.33;99609.31;5105558;28;20031;-24
2023/07/31 06:44:11;;;;;;;9.45;5.15;;;;;;;23.23;87.60;99605.53;5106054;28;20023;-28
2023/07/31 06:46:36;;;;;;;9.73;5.50;;;;;;;23.03;88.54;99603.38;5106050;28;20035;-24
2023/07/31 06:49:02;;;;;;;9.82;6.03;;;;;;;23.17;88.73;99609.50;5105768;28;20428;-24
2023/07/31 06:51:27;;;;;;;8.68;5.00;;;;;;;23.08;88.89;99610.56;5105743;28;20069;-25
2023/07/31 06:53:53;;;;;;;10.05;5.95;;;;;;;23.03;88.15;99615.03;5105602;28;20027;-24
2023/07/31 06:56:18;;;;;;;7.55;6.10;;;;;;;22.70;89.82;99606.38;5105569;28;20073;-25
2023/07/31 06:58:43;;;;;;;8.40;6.15;;;;;;;22.94;91.86;99605.19;5105460;28;20027;-24
2023/07/31 07:01:09;;;;;;;9.07;6.32;;;;;;;23.02;88.63;99612.63;5105286;28;20036;-24
2023/07/31 07:03:34;;;;;;;8.60;5.53;;;;;;;23.14;89.40;99610.13;5105065;28;20035;-25
2023/07/31 07:06:00;;;;;;;8.50;5.80;;;;;;;23.26;86.13;99613.03;5105067;28;20028;-32
2023/07/31 07:08:25;;;;;;;8.75;6.40;;;;;;;23.25;87.26;99616.88;5105833;28;20076;-25
2023/07/31 07:10:51;;;;;;;8.50;6.72;;;;;;;23.31;89.05;99611.28;5105468;28;20019;-23
2023/07/31 07:13:18;;;;;;;9.10;6.65;;;;;;;23.40;87.68;99602.03;5105263;27;20019;-26
2023/07/31 07:15:47;;;;;;;9.40;6.63;;;;;;;23.60;87.12;99600.66;5104015;28;20038;-24
2023/07/31 07:18:13;;;;;;;8.20;6.18;;;;;;;23.81;84.26;99610.97;5104957;28;20296;-24
2023/07/31 07:20:39;;;;;;;8.75;7.28;;;;;;;24.04;87.78;99601.53;5105658;28;20480;-24
2023/07/31 07:23:05;;;;;;;10.43;6.97;;;;;;;24.29;84.67;99601.03;5105432;28;20104;-25
2023/07/31 07:25:32;;;;;;;9.05;7.47;;;;;;;24.28;88.50;99592.06;5104692;28;20019;-24
2023/07/31 07:27:58;;;;;;;8.50;6.47;;;;;;;24.16;85.00;99605.53;5104489;28;20515;-24
2023/07/31 07:30:25;;;;;;;11.20;7.13;;;;;;;24.01;84.46;99599.47;5104846;28;20032;-24
2023/07/31 07:32:50;;;;;;;9.30;7.22;;;;;;;24.37;83.18;99601.03;5105297;28;20778;-25
2023/07/31 07:35:15;;;;;;;10.32;7.20;;;;;;;24.73;81.93;99602.59;5105113;28;20504;-24
2023/07/31 07:37:41;;;;;;;9.25;7.13;;;;;;;24.72;80.56;99605.66;5105010;28;20049;-24
2023/07/31 07:40:07;;;;;;;9.85;7.20;;;;;;;24.70;80.50;99608.69;5104817;28;20031;-24
2023/07/31 07:42:32;;;;;;;10.73;7.50;;;;;;;24.59;79.71;99604.72;5104664;28;20913;-24
2023/07/31 07:44:58;;;;;;;9.35;7.03;;;;;;;24.75;80.67;99605.81;5104162;28;20535;-24
2023/07/31 07:47:23;;;;;;;8.65;6.97;;;;;;;25.09;76.54;99609.56;5105082;28;20035;-25
2023/07/31 07:49:51;;;;;;;15.05;8.30;;;;;;;25.14;83.93;99605.84;5104260;28;20016;-23
2023/07/31 07:52:16;;;;;;;9.70;7.82;;;;;;;25.38;79.56;99595.16;5104509;28;20023;-24
2023/07/31 07:54:42;;;;;;;10.68;7.13;;;;;;;25.76;77.28;99598.94;5104506;28;20042;-23
2023/07/31 07:57:07;;;;;;;12.82;8.50;;;;;;;25.76;78.98;99593.47;5104552;28;20458;-25
2023/07/31 07:59:33;;;;;;;12.35;7.70;;;;;;;26.06;77.55;99594.25;5104468;28;20040;-25
2023/07/31 08:01:58;;;;;;;10.63;7.82;;;;;;;26.18;78.00;99588.84;5104173;28;20462;-26
2023/07/31 08:04:23;;;;;;;13.07;10.60;;;;;;;26.28;75.82;99595.81;5104215;28;20020;-24
2023/07/31 08:06:49;;;;;;;9.38;8.30;;;;;;;26.55;71.82;99590.91;5104279;28;20031;-25
2023/07/31 08:09:14;;;;;;;13.05;9.43;;;;;;;26.58;72.56;99590.25;5104286;28;20027;-24
2023/07/31 08:11:40;;;;;;;13.27;10.68;;;;;;;26.58;75.92;99590.25;5104431;28;20028;-24
2023/07/31 08:14:07;;;;;;;10.57;8.32;;;;;;;26.81;72.33;99588.72;5104390;28;20401;-24
2023/07/31 08:16:34;;;;;;;10.57;8.52;;;;;;;27.24;72.61;99589.34;5104140;28;20818;-24
2023/07/31 08:18:59;;;;;;;11.82;8.48;;;;;;;27.21;68.32;99585.31;5104311;28;20498;-24
2023/07/31 08:21:25;;;;;;;13.65;11.68;;;;;;;27.21;70.49;99596.25;5104506;28;20028;-24
2023/07/31 08:23:50;;;;;;;9.82;8.48;;;;;;;27.13;67.96;99591.69;5104157;28;20031;-24
2023/07/31 08:26:17;;;;;;;12.30;9.38;;;;;;;27.36;68.97;99596.75;5104328;28;20036;-24
2023/07/31 08:28:43;;;;;;;14.82;12.45;;;;;;;27.72;67.58;99603.34;5104625;28;20035;-24
2023/07/31 08:31:15;;;;;;;11.93;10.70;;;;;;;27.41;69.80;99602.00;5104096;28;20035;-25
2023/07/31 08:33:41;;;;;;;12.07;10.50;;;;;;;27.92;65.42;99602.41;5104583;28;20054;-24
2023/07/31 08:36:07;;;;;;;15.85;11.85;;;;;;;27.78;67.80;99599.22;5104600;28;20514;-23
2023/07/31 08:38:32;;;;;;;12.32;11.02;;;;;;;27.83;68.48;99605.25;5106657;28;20043;-26
2023/07/31 08:40:58;;;;;;;12.93;11.05;;;;;;;28.16;66.24;99606.22;5108045;28;20135;-23
2023/07/31 08:43:27;;;;;;;14.70;11.23;;;;;;;28.33;69.33;99610.59;5108311;28;20084;-25
2023/07/31 08:45:53;;;;;;;13.68;11.93;;;;;;;28.15;64.65;99604.59;5109265;28;20032;-24
2023/07/31 08:48:20;;;;;;;17.42;12.63;;;;;;;28.14;65.05;99609.31;5109379;28;20045;-23
2023/07/31 08:50:45;;;;;;;14.40;12.43;;;;;;;28.37;62.38;99606.81;5109174;28;20020;-24
2023/07/31 08:53:11;;;;;;;14.73;11.85;;;;;;;28.34;63.67;99604.78;5109582;28;20461;-24
2023/07/31 08:55:38;;;;;;;15.05;12.32;;;;;;;28.21;66.39;99597.72;5108679;28;20046;-24
2023/07/31 08:58:04;;;;;;;15.73;13.10;;;;;;;28.57;63.21;99601.50;5108713;28;20028;-24
2023/07/31 09:00:32;;;;;;;13.88;11.98;;;;;;;28.90;66.76;99581.94;5108808;28;20047;-24
2023/07/31 09:03:04;;;;;;;12.50;11.00;;;;;;;28.98;65.48;99593.91;5108844;28;20016;-23
2023/07/31 09:05:31;;;;;;;12.00;10.80;;;;;;;29.35;60.54;99588.94;5109495;28;20039;-23
2023/07/31 09:07:58;;;;;;;12.65;11.35;;;;;;;29.30;61.48;99585.66;5108375;28;20024;-24
2023/07/31 09:10:24;;;;;;;14.18;11.73;;;;;;;29.36;60.89;99590.56;5108535;28;20028;-24
2023/07/31 09:12:51;;;;;;;12.55;11.25;;;;;;;29.07;61.32;99588.22;5107515;28;20724;-25
2023/07/31 09:15:17;;;;;;;;;;;;;;;29.38;62.22;99595.66;5109040;28;20023;-24
2023/07/31 09:17:42;;;;;;;11.27;10.07;;;;;;;29.48;60.88;99597.84;5108637;27;19912;-24
2023/07/31 09:20:18;;;;;;;12.23;9.90;;;;;;;29.30;60.22;99607.63;5108758;28;20401;-24
2023/07/31 09:22:47;;;;;;;12.73;10.43;;;;;;;28.93;62.55;99600.47;5108661;28;20024;-27
2023/07/31 09:25:16;;;;;;;12.15;10.85;;;;;;;29.02;58.53;99603.03;5108399;28;20031;-24
2023/07/31 09:27:58;;;;;;;14.02;11.30;;;;;;;29.14;58.23;99602.19;5108466;28;20053;-25
2023/07/31 09:30:26;;;;;;;11.50;9.98;;;;;;;28.79;60.79;99598.16;5107165;28;20720;-24
2023/07/31 09:33:01;;;;;;;13.00;10.05;;;;;;;29.02;59.58;99592.84;5106684;28;20051;-24
2023/07/31 09:35:31;;;;;;;12.98;9.77;;;;;;;29.52;58.15;99590.50;5108219;28;20030;-25
2023/07/31 09:37:59;;;;;;;11.73;9.02;;;;;;;30.05;56.97;99588.13;5108404;28;20023;-24
2023/07/31 09:40:29;;;;;;;11.65;9.82;;;;;;;30.22;54.75;99591.63;5107640;28;20072;-24
2023/07/31 09:43:02;;;;;;;12.00;9.80;;;;;;;30.48;53.36;99579.16;5108195;28;20527;-25
2023/07/31 09:45:28;;;;;;;9.52;8.52;;;;;;;30.37;53.58;99579.75;5108347;28;20114;-24
2023/07/31 09:47:55;;;;;;;9.60;8.60;;;;;;;30.33;54.86;99567.88;5108343;28;20488;-25
2023/07/31 09:50:22;;;;;;;9.93;8.93;;;;;;;30.61;52.80;99570.34;5107434;28;20034;-25
2023/07/31 09:52:48;;;;;;;9.73;8.73;;;;;;;30.73;48.33;99576.84;5108007;28;20104;-24
2023/07/31 09:55:13;;;;;;;10.77;8.73;;;;;;;30.12;53.75;99567.44;5108046;28;20043;-24
2023/07/31 09:57:44;;;;;;;10.50;8.70;;;;;;;29.97;53.71;99558.09;5107876;28;20377;-24
2023/07/31 10:00:11;;;;;;;11.18;8.02;;;;;;;30.16;54.39;99557.28;5107577;28;20043;-25
2023/07/31 10:02:37;;;;;;;9.00;8.10;;;;;;;30.34;55.29;99561.22;5107660;28;20102;-24
2023/07/31 10:05:04;;;;;;;8.80;7.90;;;;;;;30.40;51.21;99565.28;5107612;28;20161;-24
2023/07/31 10:07:31;;;;;;;9.87;7.97;;;;;;;30.92;50.38;99560.28;5107969;28;20122;-23
2023/07/31 10:10:01;;;;;;;9.15;8.25;;;;;;;30.76;48.70;99571.41;5107666;28;20032;-24
2023/07/31 10:12:30;;;;;;;8.13;7.20;;;;;;;30.44;50.69;99566.13;5107673;28;20497;-23
2023/07/31 10:14:56;;;;;;;8.15;7.15;;;;;;;30.55;50.26;99560.03;5107670;28;20489;-25
2023/07/31 10:17:22;;;;;;;9.10;8.20;;;;;;;31.19;47.10;99574.88;5107454;28;20032;-24
2023/07/31 10:19:49;;;;;;;9.47;8.03;;;;;;;31.39;48.30;99555.50;5107503;28;20028;-27
2023/07/31 10:22:16;;;;;;;9.40;8.43;;;;;;;31.79;47.13;99560.41;5107459;28;20092;-26
2023/07/31 10:24:45;;;;;;;9.05;8.15;;;;;;;32.19;48.05;99555.38;5107373;27;20028;-23
2023/07/31 10:27:11;;;;;;;8.63;6.88;;;;;;;32.53;46.49;99555.28;5107471;28;20461;-23
2023/07/31 10:29:43;;;;;;;8.20;6.53;;;;;;;31.84;46.34;99554.53;5106671;28;20057;-24
2023/07/31 10:32:10;;;;;;;8.20;7.40;;;;;;;31.16;46.53;99545.31;5107295;28;20023;-24
2023/07/31 10:34:38;;;;;;;8.00;7.20;;;;;;;30.80;49.45;99541.97;5107172;28;20024;-23
2023/07/31 10:37:36;;;;;;;7.30;5.93;;;;;;;31.01;47.17;99521.47;5107107;28;20027;-23
2023/07/31 10:40:06;;;;;;;8.48;6.32;;;;;;;30.91;48.33;99533.13;5106047;28;20072;-24
2023/07/31 10:42:33;;;;;;;7.07;6.15;;;;;;;30.74;47.36;99510.41;5105845;28;20123;-23
2023/07/31 10:45:01;;;;;;;7.47;6.35;;;;;;;30.98;47.32;99523.03;5105651;28;20732;-24
2023/07/31 10:47:27;;;;;;;7.40;6.60;;;;;;;31.36;46.43;99514.91;5106353;28;20065;-24
2023/07/31 10:49:52;;;;;;;9.10;6.60;;;;;;;31.80;45.63;99517.84;5105973;28;20115;-24
2023/07/31 10:52:26;;;;;;;7.65;5.78;;;;;;;32.20;42.97;99515.56;5105616;28;20024;-25
2023/07/31 10:55:15;;;;;;;6.75;5.50;;;;;;;31.77;44.60;99506.78;5104959;28;20038;-24
2023/07/31 10:57:47;;;;;;;6.55;5.75;;;;;;;31.95;45.62;99507.78;5105822;28;20035;-25
2023/07/31 11:00:30;;;;;;;7.43;5.65;;;;;;;31.64;44.59;99504.28;5105624;28;20052;-23
2023/07/31 11:03:06;;;;;;;7.90;5.93;;;;;;;31.43;44.83;99498.47;5105925;28;20047;-25
2023/07/31 11:06:00;;;;;;;6.45;5.32;;;;;;;31.91;43.59;99512.47;5105593;28;20049;-25
2023/07/31 11:08:28;;;;;;;7.18;5.97;;;;;;;31.53;44.05;99514.38;5105569;28;20039;-25
2023/07/31 11:11:07;;;;;;;7.97;6.10;;;;;;;32.02;42.17;99507.13;5105586;28;20110;-24
2023/07/31 11:13:44;;;;;;;7.25;5.60;;;;;;;32.32;43.08;99504.25;5105215;28;20042;-25
2023/07/31 11:16:12;;;;;;;7.35;5.20;;;;;;;32.35;41.50;99502.72;5105038;28;20050;-24
2023/07/31 11:18:42;;;;;;;6.95;5.63;;;;;;;32.71;41.67;99492.78;5105395;28;20059;-24
2023/07/31 11:21:11;;;;;;;6.95;5.32;;;;;;;32.05;42.52;99498.06;5105196;28;20024;-24
2023/07/31 11:23:38;;;;;;;7.45;6.32;;;;;;;32.37;41.11;99500.38;5105279;28;20443;-24
2023/07/31 11:26:05;;;;;;;7.10;6.40;;;;;;;32.11;41.79;99482.78;5105098;28;20024;-24
2023/07/31 11:28:33;;;;;;;9.65;5.80;;;;;;;31.93;41.49;99487.28;5105468;28;20265;-25